Details From EDDF - Frankfurt am Main
To EDDV - Hannover
Flight Number -
Tags generated
Created
Modified
Stats Distance 152 nm / 282 km
Max Altitude 19,100 ft / 5,822 m
Waypoints 3
Social Downloads 3
Likes 0
Share VATSIM

Download

Looking for another format? Having issues loading an existing format? Contact us
Advertisement - Login to hide

Notes

Basic altitude profile: - Ascent Rate: 2500ft/min - Ascent Speed: 250kts - Cruise Altitude: 35000ft - Cruise Speed: 420kts - Descent Rate: 1500ft/min - Descent Speed: 250kts Options: - Use NATs: yes - Use PACOTS: yes - Use low airways: yes - Use high airways: yes

Route

EDDF EDEGA EDDV

ID Type Via Altitude Latitude Longitude Leg Dist Tot Dist Heading (true) Name
O EDDF APT - 0 ft / 0 m 50.03260˚ 8.54064˚ - 0 nm - Frankfurt am Main
EDEGA FIX - 19,100 ft / 5,822 m 51.03472˚ 9.00778˚ 62 nm 62 nm 16° / 17° -
O EDDV APT - 0 ft / 0 m 52.46209˚ 9.68679˚ 89 nm 152 nm 16° / 17° Hannover

Altitude Profile

EDDF

Details ICAO EDDF (FRA)
Name Frankfurt am Main
Region Germany - Civil
Timezone Europe/Berlin (UTC+1.0)
Stats Elevation 355 ft / 108 m (AMSL)
Location 50.032604° 8.540641°
Runways 4
Magnetic Variation 2.208° E

METAR

EDDF 030150Z 07007KT CAVOK M03/M04 Q1024 NOSIG

Decode

TAF

TAF EDDF 022300Z 0300/0406 04006KT CAVOK= TAF EDDL 022300Z 0300/0406 VRB03KT 8000 NSC BECMG 0300/0303 3000 BR TEMPO 0303/0308 1200 BCFG PROB30 TEMPO 0303/0308 0300 FZFG BECMG 0308/0311 15005KT CAVOK

Decode

Departure Runways

ID Width Length Bearing (true) Bearing (mag) Surface Threshold Offset Overrun Length
07C 197 ft / 60 m 13,091 ft / 3,990 m 69.57° 67.36° Asphalt 0 ft / 0 m 230 ft / 70 m
07L 148 ft / 45 m 9,164 ft / 2,793 m 69.54° 67.33° Concrete 0 ft / 0 m 328 ft / 100 m
07R 148 ft / 45 m 13,094 ft / 3,991 m 69.57° 67.36° Asphalt 0 ft / 0 m 230 ft / 70 m
18 148 ft / 45 m 13,056 ft / 3,980 m 179.84° 177.63° Concrete 0 ft / 0 m 49 ft / 15 m
25C 197 ft / 60 m 13,091 ft / 3,990 m 249.61° 247.40° Asphalt 0 ft / 0 m 1,152 ft / 351 m
25L 148 ft / 45 m 13,094 ft / 3,991 m 249.61° 247.40° Asphalt 0 ft / 0 m 2,051 ft / 625 m
25R 148 ft / 45 m 9,164 ft / 2,793 m 249.57° 247.36° Concrete 0 ft / 0 m 328 ft / 100 m
36 148 ft / 45 m 13,056 ft / 3,980 m 359.84° 357.63° Concrete 0 ft / 0 m 190 ft / 58 m

EDDV

Details ICAO EDDV (HAJ)
Name Hannover
Region Germany - Civil
Timezone Europe/Berlin (UTC+1.0)
Stats Elevation 183 ft / 56 m (AMSL)
Location 52.462095° 9.686794°
Runways 3
Magnetic Variation 2.538° E

METAR

EDDV 030150Z VRB02KT 9999 R27R/0800VP2000U BCFG MIFG FEW027 M02/M03 Q1024

Decode

TAF

TAF EDDV 022300Z 0300/0324 VRB02KT CAVOK PROB30 TEMPO 0300/0303 2000 BCFG BECMG 0303/0305 2000 BCFG TEMPO 0306/0310 0500 FZFG PROB30 TEMPO 0307/0310 BKN001 BECMG 0310/0312 4000 BR BKN004 TEMPO 0312/0318 6000 SCT006 TEMPO 0318/0320 2000 BECMG 0320/0322 2000 BCFG TEMPO 0322/0324 0500 FZFG BKN001

Decode

Destination Runways

ID Width Length Bearing (true) Bearing (mag) Surface Threshold Offset Overrun Length
09C 75 ft / 23 m 2,532 ft / 772 m 92.55° 90.01° Asphalt 213 ft / 65 m 0 ft / 0 m
09L 148 ft / 45 m 12,429 ft / 3,788 m 92.57° 90.03° Concrete 984 ft / 300 m 0 ft / 0 m
09R 148 ft / 45 m 7,653 ft / 2,333 m 92.60° 90.06° Concrete 0 ft / 0 m 0 ft / 0 m
27C 75 ft / 23 m 2,532 ft / 772 m 272.56° 270.02° Asphalt 541 ft / 165 m 0 ft / 0 m
27L 148 ft / 45 m 7,653 ft / 2,333 m 272.62° 270.08° Concrete 0 ft / 0 m 0 ft / 0 m
27R 148 ft / 45 m 12,429 ft / 3,788 m 272.61° 270.07° Concrete 984 ft / 300 m 0 ft / 0 m

Approach Navaids

Runway Type Ident Frequency Range Bearing (true) Bearing (mag) Slope Elevation
09L Localiser IHNE 108.30 MHz 18 nm / 33 km 92.60° 90.06° - 167 ft / 51 m (AMSL)
09L Glidescope IHNE 108.30 MHz 10 nm / 19 km 92.60° 90.06° 3.00° 167 ft / 51 m (AMSL)
09R Localiser IHSE 108.70 MHz 18 nm / 33 km 92.60° 90.06° - 172 ft / 52 m (AMSL)
09R Glidescope IHSE 108.70 MHz 10 nm / 19 km 92.60° 90.06° 3.00° 172 ft / 52 m (AMSL)
27L Localiser IHSW 109.50 MHz 18 nm / 33 km 272.60° 270.06° - 179 ft / 55 m (AMSL)
27L Glidescope IHSW 109.50 MHz 10 nm / 19 km 272.60° 270.06° 3.00° 179 ft / 55 m (AMSL)
27R Localiser IHNW 108.90 MHz 18 nm / 33 km 272.60° 270.06° - 169 ft / 52 m (AMSL)
27R Glidescope IHNW 108.90 MHz 10 nm / 19 km 272.60° 270.06° 3.00° 169 ft / 52 m (AMSL)

Popular Alternatives